This is the latest recevied weather packets stored in our database for station/object KD8YBJ. If no packets are shown the sender has not sent any weather packets the latest 10 day(s).
| Time | Temp. | Humidity | Pressure | Rain* | Wind** | Luminosity | Snow |
|---|---|---|---|---|---|---|---|
| 1777864219 | 12.78° C | 68% | 1005.2 hPa | 0 mm | - | 0 W/m² | - |
| 1777863618 | 12.78° C | 67% | 1005.1 hPa | 0 mm | - | 0 W/m² | - |
| 1777862419 | 12.78° C | 66% | 1005.4 hPa | 0 mm | - | 0 W/m² | - |
| 1777858217 | 13.89° C | 61% | 1005.3 hPa | 0 mm | - | 0 W/m² | - |
| 1777854038 | 13.89° C | 60% | 1005.3 hPa | 0 mm | - | 17 W/m² | - |
| 1777853418 | 13.89° C | 60% | 1005.3 hPa | 0 mm | - | 25 W/m² | - |
| 1777844438 | 12.22° C | 64% | 1007.5 hPa | 0 mm | - | 231 W/m² | - |
| 1777842018 | 10.56° C | 72% | 1008.4 hPa | 0 mm | - | 179 W/m² | - |
| 1777833617 | 11.67° C | 65% | 1009.9 hPa | 0 mm | - | 202 W/m² | - |
| 1777831241 | 13.33° C | 58% | 1009.5 hPa | 0 mm | - | 867 W/m² | - |
| 1777830018 | 12.78° C | 60% | 1009.6 hPa | 0 mm | - | 832 W/m² | - |
| 1777827016 | 11.11° C | 62% | 1010.4 hPa | 0 mm | - | 417 W/m² | - |
| 1777824017 | 10° C | 66% | 1010.8 hPa | 0 mm | - | 223 W/m² | - |
| 1777822217 | 9.44° C | 67% | 1011.1 hPa | 0 mm | - | 183 W/m² | - |
| 1777821018 | 8.89° C | 68% | 1011.3 hPa | 0 mm | - | 125 W/m² | - |
| 1777819238 | 9.44° C | 67% | 1011.4 hPa | 0 mm | - | 98 W/m² | - |
| 1777818016 | 10° C | 63% | 1010.8 hPa | 0 mm | - | 244 W/m² | - |
| 1777816240 | 8.89° C | 67% | 1011.3 hPa | 0 mm | - | 184 W/m² | - |
| 1777815037 | 8.89° C | 68% | 1011.6 hPa | 0 mm | - | 132 W/m² | - |
| 1777814417 | 8.89° C | 68% | 1011.8 hPa | 0 mm | - | 87 W/m² | - |
| 1777810818 | 8.33° C | 65% | 1011.6 hPa | 0 mm | - | 43 W/m² | - |
| 1777810218 | 8.33° C | 66% | 1011.7 hPa | 0 mm | - | 28 W/m² | - |
| 1777808416 | 8.33° C | 63% | 1011.6 hPa | 0 mm | - | 27 W/m² | - |
| 1777805417 | 8.33° C | 65% | 1011.6 hPa | 0 mm | - | 1 W/m² | - |
| 1777804218 | 8.33° C | 66% | 1011.5 hPa | 0 mm | - | 0 W/m² | - |
* Rain latest hour (hover to see other rain measurements)
** Current wind speed in m/s (hover to see current wind gust speed)